This is the latest recevied weather packets stored in our database for station/object E20ZNR-1. If no packets are shown the sender has not sent any weather packets the latest 10 day(s).
| Time | Temp. | Humidity | Pressure | Rain* | Wind** | Luminosity | Snow |
|---|---|---|---|---|---|---|---|
| 1778130776 | 39.44° C | 51% | 1004 hPa | - | - | 0 W/m² | - |
| 1778129851 | 41.11° C | 52% | 1004 hPa | - | - | 0 W/m² | - |
| 1778128925 | 39.44° C | 53% | 1005 hPa | - | - | 0 W/m² | - |
| 1778127998 | 38.33° C | 54% | 1005 hPa | - | - | 0 W/m² | - |
| 1778127073 | 38.89° C | 54% | 1005 hPa | - | - | 0 W/m² | - |
| 1778126148 | 38.89° C | 55% | 1005 hPa | - | - | 0 W/m² | - |
| 1778125223 | 38.89° C | 54% | 1005 hPa | - | - | 0 W/m² | - |
| 1778124299 | 37.78° C | 56% | 1005 hPa | - | - | 0 W/m² | - |
| 1778123372 | 38.33° C | 54% | 1006 hPa | - | - | 0 W/m² | - |
| 1778122447 | 39.44° C | 53% | 1006 hPa | - | - | 0 W/m² | - |
| 1778121520 | 38.89° C | 53% | 1006 hPa | - | - | 0 W/m² | - |
| 1778120596 | 38.33° C | 59% | 1006 hPa | - | - | 0 W/m² | - |
| 1778119671 | 36.67° C | 59% | 1006 hPa | - | - | 0 W/m² | - |
| 1778118746 | 43.89° C | 42% | 1006 hPa | - | - | 0 W/m² | - |
| 1778117821 | 44.44° C | 40% | 1006 hPa | - | - | 0 W/m² | - |
| 1778116895 | 45° C | 39% | 1006 hPa | - | - | 0 W/m² | - |
| 1778115970 | 43.33° C | 43% | 1006 hPa | - | - | 0 W/m² | - |
| 1778115044 | 41.11° C | 55% | 1006 hPa | - | - | 0 W/m² | - |
| 1778114120 | 38.33° C | 58% | 1006 hPa | - | - | 0 W/m² | - |
| 1778113194 | 34.44° C | 80% | 1005 hPa | - | - | 0 W/m² | - |
| 1778112269 | 34.44° C | 92% | 1005 hPa | - | - | 0 W/m² | - |
| 1778111344 | 30.56° C | 98% | 1005 hPa | - | - | 0 W/m² | - |
| 1778110419 | 31.67° C | 99% | 1005 hPa | - | - | 0 W/m² | - |
| 1778109494 | 28.33° C | 99% | 1005 hPa | - | - | 0 W/m² | - |
| 1778108570 | 27.22° C | 99% | 1005 hPa | - | - | 0 W/m² | - |
* Rain since midnight (hover to see other rain measurements)
** Current wind speed in m/s (hover to see current wind gust speed)